Time;durP1;ratioP1;P1;durP2;ratioP2;P2;SDS_P1;SDS_P2;PMS_P1;PMS_P2;Temp;Humidity;BMP_temperature;BMP_pressure;BME280_temperature;BME280_humidity;BME280_pressure;Samples;Min_cycle;Max_cycle;Signal;HPM_P1;HPM_P2
2022/11/02 00:01:39;;;;;;;8.15;3.33;;;;;;;9.12;75.07;97027.38;5074354;28;20052;-61
2022/11/02 00:04:06;;;;;;;5.72;3.38;;;;;;;9.14;74.57;97028.19;5074303;28;20049;-60
2022/11/02 00:06:34;;;;;;;5.18;3.33;;;;;;;9.11;75.27;97025.66;5073971;28;20056;-60
2022/11/02 00:09:01;;;;;;;7.63;3.50;;;;;;;9.15;74.38;97016.03;5074297;28;20049;-60
2022/11/02 00:11:28;;;;;;;5.80;2.90;;;;;;;9.13;74.24;97023.03;5074257;28;20075;-60
2022/11/02 00:13:57;;;;;;;8.98;3.58;;;;;;;9.07;74.42;97021.41;5074091;28;20048;-60
2022/11/02 00:16:25;;;;;;;5.78;3.45;;;;;;;8.94;75.53;97010.44;5074101;28;20456;-60
2022/11/02 00:18:55;;;;;;;6.28;2.88;;;;;;;8.88;75.65;97021.84;5074066;28;20487;-60
2022/11/02 00:21:25;;;;;;;3.70;3.25;;;;;;;8.85;75.56;97014.97;5073794;28;20044;-60
2022/11/02 00:23:53;;;;;;;7.28;3.05;;;;;;;8.79;75.89;97009.88;5073881;28;20124;-60
2022/11/02 00:26:21;;;;;;;5.00;3.03;;;;;;;8.79;76.24;97016.88;5073808;28;20040;-61
2022/11/02 00:28:49;;;;;;;6.28;2.97;;;;;;;8.77;76.17;97005.59;5073813;28;20136;-60
2022/11/02 00:31:17;;;;;;;7.78;3.50;;;;;;;8.68;76.72;97011.88;5073723;28;20121;-60
2022/11/02 00:33:44;;;;;;;7.43;4.05;;;;;;;8.62;77.58;97006.81;5073915;28;20060;-60
2022/11/02 00:36:11;;;;;;;9.98;4.03;;;;;;;8.62;77.52;97005.06;5073755;28;20053;-60
2022/11/02 00:38:38;;;;;;;7.85;3.35;;;;;;;8.66;76.82;97008.44;5073639;28;20055;-60
2022/11/02 00:41:06;;;;;;;8.55;2.92;;;;;;;8.66;76.09;97006.72;5073661;28;20251;-60
2022/11/02 00:43:33;;;;;;;7.22;3.03;;;;;;;8.66;76.07;97004.09;5073613;28;20101;-60
2022/11/02 00:46:01;;;;;;;6.28;3.13;;;;;;;8.59;76.41;96999.91;5073495;28;20048;-60
2022/11/02 00:48:29;;;;;;;3.50;2.92;;;;;;;8.52;76.91;97001.75;5073497;28;20049;-60
2022/11/02 00:50:56;;;;;;;10.63;3.30;;;;;;;8.51;77.27;97001.78;5073311;28;20056;-60
2022/11/02 00:53:23;;;;;;;6.60;3.45;;;;;;;8.40;77.91;96995.06;5073331;28;20498;-61
2022/11/02 00:55:52;;;;;;;6.43;2.70;;;;;;;8.36;78.17;96989.97;5073319;28;20044;-60
2022/11/02 00:58:20;;;;;;;10.32;3.45;;;;;;;8.41;78.27;96993.31;5073383;28;20045;-60
2022/11/02 01:00:47;;;;;;;7.82;3.40;;;;;;;8.43;78.35;96991.56;5073288;28;20052;-60
2022/11/02 01:03:15;;;;;;;5.80;3.10;;;;;;;8.43;78.09;96994.16;5073200;28;20048;-60
2022/11/02 01:05:43;;;;;;;11.07;3.55;;;;;;;8.43;77.92;96992.41;5073172;28;20040;-60
2022/11/02 01:08:10;;;;;;;5.45;3.17;;;;;;;8.45;77.67;96992.38;5073141;28;20399;-60
2022/11/02 01:10:37;;;;;;;6.50;3.00;;;;;;;8.40;77.57;96986.41;5073115;28;20056;-60
2022/11/02 01:13:04;;;;;;;6.00;2.60;;;;;;;8.37;78.29;96983.88;5073109;28;20048;-61
2022/11/02 01:15:31;;;;;;;4.95;3.25;;;;;;;8.38;78.30;96982.97;5073275;28;20119;-61
2022/11/02 01:17:58;;;;;;;4.68;3.15;;;;;;;8.42;78.28;96982.00;5072459;28;20056;-61
2022/11/02 01:20:26;;;;;;;4.05;2.92;;;;;;;8.44;78.28;96985.44;5073115;28;20084;-61
2022/11/02 01:22:54;;;;;;;5.57;3.30;;;;;;;8.44;78.00;96977.63;5072836;28;20131;-61
2022/11/02 01:25:21;;;;;;;7.10;2.80;;;;;;;8.45;77.22;96977.59;5073056;28;20053;-61
2022/11/02 01:27:49;;;;;;;4.25;2.70;;;;;;;8.41;76.98;96973.34;5073011;28;20502;-61
2022/11/02 01:30:16;;;;;;;5.05;2.60;;;;;;;8.34;77.42;96969.16;5072971;28;20048;-61
2022/11/02 01:32:44;;;;;;;6.50;2.55;;;;;;;8.31;77.56;96964.84;5072854;28;20525;-61
2022/11/02 01:35:11;;;;;;;6.50;2.60;;;;;;;8.28;77.50;96958.88;5072871;28;20123;-60
2022/11/02 01:37:41;;;;;;;4.63;2.75;;;;;;;8.30;77.62;96965.75;5072875;28;20482;-61
2022/11/02 01:40:11;;;;;;;3.83;2.45;;;;;;;8.27;78.42;96957.13;5073172;28;20448;-61
2022/11/02 01:42:38;;;;;;;4.57;2.85;;;;;;;8.20;78.49;96956.41;5073009;28;20084;-61
2022/11/02 01:45:06;;;;;;;6.72;3.38;;;;;;;8.17;78.87;96954.75;5072881;28;20049;-61
2022/11/02 01:47:38;;;;;;;3.67;3.00;;;;;;;8.18;79.53;96955.56;5072764;28;20098;-60
2022/11/02 01:50:08;;;;;;;6.70;2.67;;;;;;;8.18;78.73;96948.63;5072722;28;20102;-61
2022/11/02 01:52:37;;;;;;;4.95;2.95;;;;;;;8.19;78.79;96947.72;5072883;28;20132;-61
2022/11/02 01:55:09;;;;;;;4.57;2.85;;;;;;;8.18;78.88;96942.56;5072690;28;20456;-61
2022/11/02 01:57:40;;;;;;;3.33;2.50;;;;;;;8.15;78.66;96946.09;5072939;28;20197;-61
2022/11/02 02:00:10;;;;;;;7.28;3.25;;;;;;;8.07;79.26;96950.63;5072749;28;20498;-61
2022/11/02 02:02:42;;;;;;;4.82;2.88;;;;;;;8.01;79.63;96954.19;5072849;28;20044;-61
2022/11/02 02:05:13;;;;;;;6.75;2.95;;;;;;;7.98;79.89;96946.47;5072701;28;20593;-61
2022/11/02 02:07:41;;;;;;;4.80;2.95;;;;;;;8.04;79.38;96946.31;5072743;28;20379;-61
2022/11/02 02:10:09;;;;;;;6.20;3.20;;;;;;;8.00;79.55;96949.88;5072648;28;20501;-61
2022/11/02 02:12:41;;;;;;;3.00;2.28;;;;;;;8.02;78.69;96949.84;5072612;28;20097;-61
2022/11/02 02:15:09;;;;;;;6.30;3.10;;;;;;;8.01;79.12;96950.75;5072573;28;20044;-61
2022/11/02 02:17:44;;;;;;;4.40;2.50;;;;;;;7.99;78.70;96956.00;5072474;28;20084;-61
2022/11/02 02:20:26;;;;;;;6.20;3.25;;;;;;;7.93;78.72;96954.38;5072525;28;20453;-61
2022/11/02 02:23:23;;;;;;;5.93;2.70;;;;;;;7.91;79.19;96952.66;5072517;28;20503;-61
2022/11/02 02:26:25;;;;;;;4.00;2.67;;;;;;;7.87;79.25;96949.28;5059881;28;20045;-61
2022/11/02 02:28:57;;;;;;;6.18;3.25;;;;;;;7.83;79.25;96951.09;5018316;28;20128;-61
2022/11/02 02:31:33;;;;;;;4.32;3.10;;;;;;;7.84;79.65;96952.81;5076138;28;20075;-60
2022/11/02 02:34:09;;;;;;;3.72;3.22;;;;;;;7.79;79.80;96946.84;5076055;28;20101;-61
2022/11/02 02:36:45;;;;;;;4.72;3.50;;;;;;;7.78;80.36;96946.88;5076088;28;20387;-61
2022/11/02 02:39:19;;;;;;;7.53;2.55;;;;;;;7.79;80.44;96946.84;5075985;28;20048;-60
2022/11/02 02:41:51;;;;;;;4.88;3.17;;;;;;;7.76;80.65;96941.69;5075808;28;20108;-60
2022/11/02 02:44:23;;;;;;;4.55;2.85;;;;;;;7.78;80.36;96952.94;5075840;28;20044;-61
2022/11/02 02:46:55;;;;;;;4.78;3.58;;;;;;;7.78;79.95;96958.16;5075746;28;20561;-61
2022/11/02 02:49:29;;;;;;;5.47;3.55;;;;;;;7.83;79.53;96953.69;5075746;28;20557;-61
2022/11/02 02:51:58;;;;;;;5.13;2.75;;;;;;;7.80;78.52;96945.94;5075577;28;20061;-61
2022/11/02 02:54:31;;;;;;;2.67;2.33;;;;;;;7.76;78.43;96952.09;5075617;28;20045;-61
2022/11/02 02:57:06;;;;;;;7.97;3.25;;;;;;;7.76;78.34;96952.09;5075656;28;20044;-60
2022/11/02 02:59:39;;;;;;;5.22;3.03;;;;;;;7.77;78.68;96952.97;5075547;28;20478;-60
2022/11/02 03:02:09;;;;;;;3.90;3.00;;;;;;;7.69;78.79;96946.19;5075595;28;20053;-61
2022/11/02 03:04:37;;;;;;;5.00;2.90;;;;;;;7.68;78.43;96941.00;5075525;28;20055;-61
2022/11/02 03:07:04;;;;;;;5.50;3.13;;;;;;;7.68;78.46;96941.00;5075442;28;20548;-60
2022/11/02 03:09:37;;;;;;;6.85;2.80;;;;;;;7.57;78.86;96936.00;5075500;28;20052;-61
2022/11/02 03:12:16;;;;;;;8.48;3.08;;;;;;;7.60;79.24;96941.13;5075292;28;20044;-61
2022/11/02 03:14:54;;;;;;;6.25;3.13;;;;;;;7.58;79.31;96942.91;5075417;28;20054;-61
2022/11/02 03:17:28;;;;;;;5.63;3.28;;;;;;;7.51;79.48;96939.56;5075265;28;20084;-61
2022/11/02 03:20:03;;;;;;;5.65;3.00;;;;;;;7.50;80.10;96935.28;5075134;28;20052;-61
2022/11/02 03:22:35;;;;;;;10.07;3.40;;;;;;;7.57;79.72;96944.66;5074939;28;20050;-61
2022/11/02 03:25:12;;;;;;;5.57;3.42;;;;;;;7.57;79.86;96943.81;5075106;28;20044;-61
2022/11/02 03:27:49;;;;;;;7.40;3.25;;;;;;;7.59;79.93;96948.09;5075043;28;20502;-61
2022/11/02 03:30:20;;;;;;;5.43;2.78;;;;;;;7.58;79.90;96940.31;5075065;28;20087;-61
2022/11/02 03:32:54;;;;;;;9.02;3.55;;;;;;;7.59;80.35;96931.63;5075052;28;20060;-61
2022/11/02 03:35:30;;;;;;;5.78;3.50;;;;;;;7.59;79.95;96931.63;5074972;28;20084;-61
2022/11/02 03:38:04;;;;;;;4.32;3.03;;;;;;;7.59;80.18;96937.66;5074964;28;20049;-61
2022/11/02 03:40:37;;;;;;;4.75;3.15;;;;;;;7.59;79.81;96935.06;5074258;28;20044;-60
2022/11/02 03:43:07;;;;;;;5.88;3.15;;;;;;;7.64;79.79;96931.50;5074809;28;20049;-60
2022/11/02 03:45:39;;;;;;;7.15;3.50;;;;;;;7.66;80.01;96929.75;5074683;28;20056;-61
2022/11/02 03:48:12;;;;;;;4.78;3.08;;;;;;;7.62;79.82;96930.69;5074758;28;20117;-61
2022/11/02 03:50:43;;;;;;;4.88;2.90;;;;;;;7.59;79.73;96929.84;5074495;28;20049;-61
2022/11/02 03:53:16;;;;;;;7.65;3.10;;;;;;;7.59;79.78;96924.66;5074623;28;20070;-61
2022/11/02 03:55:53;;;;;;;3.80;2.95;;;;;;;7.63;79.83;96927.19;5074511;28;20068;-60
2022/11/02 03:58:20;;;;;;;5.97;3.38;;;;;;;7.61;79.88;96931.59;5074466;28;20044;-61
2022/11/02 04:00:53;;;;;;;8.63;3.10;;;;;;;7.58;80.44;96928.16;5074476;28;20052;-60
2022/11/02 04:03:22;;;;;;;8.15;3.05;;;;;;;7.59;80.21;96929.84;5074356;28;20044;-60
2022/11/02 04:05:50;;;;;;;10.75;3.40;;;;;;;7.54;80.26;96926.50;5074461;28;20399;-60
2022/11/02 04:08:23;;;;;;;4.88;3.20;;;;;;;7.55;80.10;96927.34;5074242;28;20051;-60
2022/11/02 04:16:22;;;;;;;4.18;2.65;;;;;;;7.50;79.64;96922.25;5074297;28;20060;-60
2022/11/02 04:21:34;;;;;;;5.32;3.42;;;;;;;7.49;79.46;96922.28;5073845;28;20414;-61
2022/11/02 04:26:45;;;;;;;6.20;3.40;;;;;;;7.45;80.05;96919.72;5073970;28;20055;-60
2022/11/02 04:29:12;;;;;;;5.15;3.10;;;;;;;7.37;80.73;96928.59;5073854;28;20044;-60
2022/11/02 04:31:41;;;;;;;5.22;3.05;;;;;;;7.41;80.77;96920.66;5073642;28;20054;-61
2022/11/02 04:34:08;;;;;;;9.75;3.63;;;;;;;7.40;80.95;96916.34;5073728;28;20441;-60
2022/11/02 04:36:35;;;;;;;5.80;3.22;;;;;;;7.39;80.75;96914.63;5073783;28;20120;-60
2022/11/02 04:39:02;;;;;;;15.88;3.75;;;;;;;7.35;81.45;96915.59;5073700;28;20044;-60
2022/11/02 04:41:41;;;;;;;3.42;2.75;;;;;;;7.40;82.06;96912.88;5073596;28;20048;-59
2022/11/02 04:44:13;;;;;;;3.67;3.25;;;;;;;7.45;81.32;96914.53;5073564;28;20094;-61
2022/11/02 04:46:44;;;;;;;9.43;3.35;;;;;;;7.46;81.20;96916.22;5073603;28;20406;-60
2022/11/02 04:49:13;;;;;;;4.78;3.03;;;;;;;7.49;80.91;96909.25;5073526;28;20041;-60
2022/11/02 04:51:40;;;;;;;4.53;2.97;;;;;;;7.45;80.63;96909.31;5072481;28;20102;-60
2022/11/02 04:54:09;;;;;;;4.93;2.90;;;;;;;7.44;80.40;96899.78;5073465;28;20040;-60
2022/11/02 04:56:36;;;;;;;10.65;3.50;;;;;;;7.42;80.53;96909.38;5073327;28;20106;-60
2022/11/02 04:59:04;;;;;;;6.25;3.88;;;;;;;7.35;81.09;96909.53;5073365;28;20067;-60
2022/11/02 05:01:35;;;;;;;6.35;3.20;;;;;;;7.36;81.88;96911.22;5073360;28;20051;-61
2022/11/02 05:04:04;;;;;;;7.32;3.33;;;;;;;7.35;81.85;96915.59;5073266;28;20048;-60
2022/11/02 05:06:31;;;;;;;8.02;3.45;;;;;;;7.29;82.27;96908.72;5073228;28;20127;-60
2022/11/02 05:08:58;;;;;;;7.38;3.83;;;;;;;7.30;82.79;96914.81;5073247;28;20075;-60
2022/11/02 05:11:25;;;;;;;7.47;3.95;;;;;;;7.33;83.12;96915.63;5073165;28;20048;-60
2022/11/02 05:13:52;;;;;;;6.53;3.05;;;;;;;7.40;83.43;96921.56;5073143;28;20101;-60
2022/11/02 05:16:19;;;;;;;9.40;3.78;;;;;;;7.46;83.33;96913.63;5073186;28;20044;-60
2022/11/02 05:18:48;;;;;;;12.30;3.88;;;;;;;7.55;83.49;96919.53;5073153;28;20053;-60
2022/11/02 05:21:16;;;;;;;6.53;3.47;;;;;;;7.61;83.64;96929.00;5073091;28;20494;-59
2022/11/02 05:23:44;;;;;;;7.13;3.53;;;;;;;7.74;83.17;96925.25;5073111;28;20593;-60
2022/11/02 05:26:12;;;;;;;3.53;2.72;;;;;;;7.87;83.26;96925.84;5073005;28;20418;-60
2022/11/02 05:28:40;;;;;;;5.80;3.10;;;;;;;8.03;81.57;96925.50;5072929;28;20054;-60
2022/11/02 05:31:07;;;;;;;5.95;3.38;;;;;;;8.20;81.21;96935.56;5072870;28;20045;-60
2022/11/02 05:33:36;;;;;;;7.15;3.40;;;;;;;8.65;79.76;96934.59;5072966;28;20210;-60
2022/11/02 05:36:04;;;;;;;12.25;3.20;;;;;;;9.64;76.94;96932.06;5073088;28;20044;-61
2022/11/02 05:38:33;;;;;;;4.75;2.70;;;;;;;10.82;72.35;96936.41;5073035;28;20048;-60
2022/11/02 05:41:00;;;;;;;4.63;2.78;;;;;;;11.94;67.94;96938.69;5072940;28;20449;-60
2022/11/02 05:43:28;;;;;;;8.60;2.60;;;;;;;13.07;64.49;96941.34;5072867;28;20075;-60
2022/11/02 05:45:56;;;;;;;4.30;2.30;;;;;;;14.18;60.54;96940.97;5072930;28;20394;-60
2022/11/02 05:48:25;;;;;;;9.10;2.47;;;;;;;15.19;56.87;96943.22;5072886;28;20056;-60
2022/11/02 05:50:56;;;;;;;4.57;2.40;;;;;;;16.14;53.83;96941.00;5072847;28;20449;-60
2022/11/02 05:53:23;;;;;;;2.38;2.03;;;;;;;17.05;51.61;96942.13;5072623;28;20086;-60
2022/11/02 05:55:53;;;;;;;3.78;2.10;;;;;;;17.97;48.99;96944.66;5072803;28;20067;-60
2022/11/02 05:58:20;;;;;;;3.92;2.00;;;;;;;18.77;47.57;96945.03;5072716;28;20134;-61
2022/11/02 06:00:47;;;;;;;5.13;2.13;;;;;;;19.57;45.69;96949.50;5072680;28;20075;-61
2022/11/02 06:03:16;;;;;;;3.65;2.03;;;;;;;20.40;44.23;96935.00;5074003;28;20585;-61
2022/11/02 06:05:44;;;;;;;2.75;1.80;;;;;;;21.29;41.79;96942.75;5076639;28;20052;-61
2022/11/02 06:08:11;;;;;;;2.40;1.65;;;;;;;22.05;40.50;96943.25;5076584;28;20414;-61
2022/11/02 06:10:41;;;;;;;4.38;1.85;;;;;;;22.70;39.06;96935.47;5076480;28;20045;-61
2022/11/02 06:13:11;;;;;;;2.60;1.70;;;;;;;23.23;37.28;96940.97;5076405;28;20482;-61
2022/11/02 06:15:38;;;;;;;4.85;1.92;;;;;;;23.72;36.18;96941.34;5076366;28;20056;-61
2022/11/02 06:18:06;;;;;;;3.30;1.85;;;;;;;24.25;35.73;96943.16;5076424;28;20102;-61
2022/11/02 06:20:34;;;;;;;2.63;1.98;;;;;;;24.81;34.55;96941.78;5076527;28;20101;-61
2022/11/02 06:23:01;;;;;;;2.58;1.58;;;;;;;25.36;33.66;96939.53;5076138;28;20049;-61
2022/11/02 06:25:28;;;;;;;3.70;1.90;;;;;;;25.82;32.70;96944.28;5076278;28;20091;-61
2022/11/02 06:27:57;;;;;;;3.10;1.60;;;;;;;26.48;32.06;96942.50;5076155;28;20052;-61
2022/11/02 06:30:26;;;;;;;2.35;1.65;;;;;;;27.04;31.18;96941.63;5076119;28;20048;-62
2022/11/02 06:32:54;;;;;;;4.85;1.95;;;;;;;27.61;30.71;96937.72;5076053;28;20135;-61
2022/11/02 06:35:23;;;;;;;4.78;2.25;;;;;;;28.09;30.17;96941.91;5075989;28;20048;-61
2022/11/02 06:37:50;;;;;;;2.35;1.60;;;;;;;28.46;29.42;96939.91;5075972;28;20052;-61
2022/11/02 06:40:17;;;;;;;5.22;2.15;;;;;;;28.85;29.14;96933.97;5075915;28;20048;-61
2022/11/02 06:42:45;;;;;;;5.30;1.80;;;;;;;29.15;28.97;96947.00;5075952;28;20090;-61
2022/11/02 06:45:12;;;;;;;2.80;1.75;;;;;;;29.14;29.10;96946.16;5075824;28;20544;-62
2022/11/02 06:47:41;;;;;;;4.95;1.50;;;;;;;29.64;28.37;96940.81;5075919;28;20052;-61
2022/11/02 06:50:09;;;;;;;2.25;1.60;;;;;;;30.23;28.19;96949.63;5075827;28;20045;-61
2022/11/02 06:52:42;;;;;;;3.28;2.00;;;;;;;30.57;27.42;96944.09;5075765;28;20121;-62
2022/11/02 06:55:10;;;;;;;3.95;1.50;;;;;;;31.01;26.25;96946.25;5075779;28;20123;-61
2022/11/02 06:57:37;;;;;;;2.05;1.48;;;;;;;31.55;26.40;96942.81;5075746;28;20048;-59
2022/11/02 07:00:05;;;;;;;3.17;1.75;;;;;;;31.86;25.78;96936.44;5075614;28;20478;-61
2022/11/02 07:02:32;;;;;;;3.70;2.13;;;;;;;32.11;25.28;96944.34;5075638;28;20048;-61
2022/11/02 07:05:02;;;;;;;2.25;1.60;;;;;;;32.42;24.60;96937.03;5075672;28;20052;-59
2022/11/02 07:07:29;;;;;;;4.55;2.08;;;;;;;32.51;24.29;96935.94;5075560;28;20053;-59
2022/11/02 07:09:56;;;;;;;3.55;2.05;;;;;;;32.62;24.21;96940.84;5075417;28;20498;-61
2022/11/02 07:12:23;;;;;;;6.45;2.67;;;;;;;32.80;24.00;96938.78;5075376;28;20088;-59
2022/11/02 07:14:51;;;;;;;6.15;2.08;;;;;;;33.13;23.39;96931.00;5074313;28;20087;-59
2022/11/02 07:17:18;;;;;;;2.38;1.95;;;;;;;33.47;23.35;96935.91;5075238;28;20076;-59
2022/11/02 07:19:45;;;;;;;2.97;2.33;;;;;;;33.76;22.87;96932.19;5075214;28;20501;-59
2022/11/02 07:22:13;;;;;;;4.30;2.22;;;;;;;34.20;22.42;96923.94;5075078;28;20128;-59
2022/11/02 07:24:41;;;;;;;4.07;2.33;;;;;;;34.69;22.60;96926.69;5075240;28;20097;-59
2022/11/02 07:27:09;;;;;;;5.30;2.00;;;;;;;34.73;22.47;96927.13;5075120;28;20076;-59
2022/11/02 07:29:36;;;;;;;3.90;2.42;;;;;;;35.01;22.03;96924.28;5075078;28;20041;-61
2022/11/02 07:32:03;;;;;;;3.53;2.05;;;;;;;35.35;21.68;96918.06;5074953;28;20106;-61
2022/11/02 07:34:30;;;;;;;3.58;2.33;;;;;;;35.72;21.46;96915.78;5074965;28;20055;-61
2022/11/02 07:36:57;;;;;;;4.05;2.55;;;;;;;36.00;21.46;96922.00;5074945;28;20106;-61
2022/11/02 07:39:26;;;;;;;2.60;2.10;;;;;;;36.11;20.05;96918.63;5074902;28;20051;-61
2022/11/02 07:41:53;;;;;;;4.55;2.28;;;;;;;35.90;20.28;96909.69;5074811;28;20414;-61
2022/11/02 07:44:20;;;;;;;9.27;2.75;;;;;;;35.74;19.46;96908.25;5074706;28;20094;-61
2022/11/02 07:46:47;;;;;;;2.30;2.08;;;;;;;35.61;19.73;96908.22;5074666;28;20052;-61
2022/11/02 07:49:14;;;;;;;5.10;2.50;;;;;;;35.31;20.37;96898.63;5074801;28;20044;-61
2022/11/02 07:51:43;;;;;;;7.18;2.80;;;;;;;35.33;20.24;96904.66;5074733;28;20041;-61
2022/11/02 07:54:10;;;;;;;3.95;2.97;;;;;;;35.15;20.48;96894.38;5074457;28;20110;-61
2022/11/02 07:56:38;;;;;;;6.53;3.30;;;;;;;34.52;21.13;96894.44;5074444;28;20503;-61
2022/11/02 07:59:05;;;;;;;6.22;2.72;;;;;;;33.83;21.78;96890.75;5074519;28;20589;-61
2022/11/02 08:01:32;;;;;;;4.30;2.38;;;;;;;33.02;22.75;96897.13;5074415;28;20048;-61
2022/11/02 08:03:59;;;;;;;6.60;2.55;;;;;;;32.35;23.41;96889.06;5074389;28;20098;-61
2022/11/02 08:06:27;;;;;;;4.10;2.45;;;;;;;31.62;23.61;96887.00;5074394;28;20094;-61
2022/11/02 08:08:54;;;;;;;12.63;2.78;;;;;;;30.79;24.30;96883.09;5074256;28;20051;-61
2022/11/02 08:11:21;;;;;;;7.45;2.50;;;;;;;30.12;24.88;96886.09;5074232;28;20080;-61
2022/11/02 08:13:49;;;;;;;7.68;2.13;;;;;;;29.46;25.79;96878.13;5074211;28;20044;-61
2022/11/02 08:16:16;;;;;;;3.75;2.22;;;;;;;28.96;26.24;96872.78;5074239;28;20056;-61
2022/11/02 08:18:43;;;;;;;4.35;2.47;;;;;;;28.51;27.13;96868.47;5074203;28;20052;-61
2022/11/02 08:21:10;;;;;;;4.70;2.50;;;;;;;28.29;27.85;96867.22;5074007;28;20044;-61
2022/11/02 08:23:37;;;;;;;9.18;3.00;;;;;;;28.09;27.69;96855.88;5073736;28;20502;-61
2022/11/02 08:26:05;;;;;;;4.00;2.05;;;;;;;27.87;27.70;96858.97;5073810;28;20044;-61
2022/11/02 08:28:35;;;;;;;8.85;2.33;;;;;;;27.64;28.15;96866.72;5073860;28;20048;-60
2022/11/02 08:31:03;;;;;;;6.55;2.25;;;;;;;27.36;28.99;96862.34;5073854;28;20552;-61
2022/11/02 08:33:31;;;;;;;3.63;2.22;;;;;;;27.09;28.67;96860.66;5073765;28;20457;-61
2022/11/02 08:36:02;;;;;;;2.70;1.90;;;;;;;27.04;29.48;96863.78;5073919;28;20122;-61
2022/11/02 08:38:30;;;;;;;5.55;2.40;;;;;;;26.88;29.56;96856.41;5073813;28;20048;-61
2022/11/02 08:40:57;;;;;;;6.45;2.28;;;;;;;26.77;30.02;96856.63;5073590;28;20051;-61
2022/11/02 08:43:24;;;;;;;3.80;2.10;;;;;;;26.82;30.03;96855.16;5073582;28;20479;-60
2022/11/02 08:45:51;;;;;;;4.40;2.28;;;;;;;26.91;30.52;96855.25;5073514;28;20053;-61
2022/11/02 08:48:20;;;;;;;4.80;2.13;;;;;;;26.93;29.71;96853.25;5073520;28;20096;-60
2022/11/02 08:50:49;;;;;;;4.88;2.20;;;;;;;26.86;30.79;96853.88;5073541;28;20087;-61
2022/11/02 08:53:16;;;;;;;6.28;2.53;;;;;;;26.89;30.08;96852.72;5073428;28;20136;-59
2022/11/02 08:55:43;;;;;;;4.00;2.70;;;;;;;26.92;30.31;96848.88;5073368;28;20044;-60
2022/11/02 08:58:10;;;;;;;6.65;2.28;;;;;;;26.95;30.26;96846.75;5073297;28;20087;-60
2022/11/02 09:00:37;;;;;;;5.03;2.33;;;;;;;27.01;29.84;96839.94;5073431;28;20139;-59
2022/11/02 09:03:06;;;;;;;3.10;2.15;;;;;;;27.15;29.16;96838.53;5073292;28;20055;-59
2022/11/02 09:05:37;;;;;;;4.57;2.08;;;;;;;27.18;29.01;96837.38;5073364;28;20044;-59
2022/11/02 09:08:06;;;;;;;4.05;2.25;;;;;;;27.22;28.65;96841.44;5073251;28;20127;-59
2022/11/02 09:10:35;;;;;;;5.78;2.38;;;;;;;27.08;30.14;96830.28;5073306;28;20086;-60
2022/11/02 09:13:04;;;;;;;4.45;2.30;;;;;;;27.12;29.20;96830.81;5073174;28;20135;-60
2022/11/02 09:15:33;;;;;;;4.20;2.08;;;;;;;27.11;28.43;96837.16;5073256;28;20489;-60
2022/11/02 09:18:00;;;;;;;5.72;2.25;;;;;;;26.99;28.71;96829.38;5073160;28;20135;-59
2022/11/02 09:20:28;;;;;;;5.90;2.55;;;;;;;26.96;29.08;96826.97;5073083;28;20049;-59
2022/11/02 09:22:57;;;;;;;2.28;1.83;;;;;;;27.16;29.52;96823.28;5072850;28;20406;-60
2022/11/02 09:25:24;;;;;;;9.88;2.25;;;;;;;27.30;29.17;96813.81;5073238;28;20044;-59
2022/11/02 09:27:53;;;;;;;7.28;2.28;;;;;;;27.27;29.05;96811.44;5073044;28;20079;-59
2022/11/02 09:30:21;;;;;;;4.72;2.78;;;;;;;27.15;30.26;96808.19;5073009;28;20048;-59
2022/11/02 09:32:54;;;;;;;6.57;2.15;;;;;;;27.19;29.52;96805.03;5072963;28;20080;-59
2022/11/02 09:35:22;;;;;;;6.78;2.45;;;;;;;27.30;29.64;96805.75;5073043;28;20383;-59
2022/11/02 09:37:49;;;;;;;5.90;2.47;;;;;;;27.39;29.85;96796.72;5072351;28;20080;-59
2022/11/02 09:40:21;;;;;;;3.97;2.47;;;;;;;27.36;29.59;96787.16;5072965;28;20053;-60
2022/11/02 09:42:59;;;;;;;4.82;2.63;;;;;;;27.36;29.78;96800.59;5072935;28;20083;-59
2022/11/02 09:45:27;;;;;;;5.43;2.22;;;;;;;27.30;29.84;96795.84;5072951;28;20102;-59
2022/11/02 09:48:01;;;;;;;4.07;2.50;;;;;;;27.31;29.30;96794.88;5072874;28;20048;-59
2022/11/02 09:50:42;;;;;;;7.55;2.40;;;;;;;27.35;28.98;96790.84;5072847;28;20048;-59
2022/11/02 09:53:14;;;;;;;4.22;1.92;;;;;;;27.38;29.12;96787.84;5072766;28;20048;-59
2022/11/02 09:55:49;;;;;;;5.07;2.53;;;;;;;27.41;28.36;96784.00;5072860;28;20040;-59
2022/11/02 09:58:21;;;;;;;3.25;2.40;;;;;;;27.47;29.12;96775.31;5072689;28;20080;-59
2022/11/02 10:00:53;;;;;;;7.68;2.33;;;;;;;27.54;27.87;96775.50;5072685;28;20136;-59
2022/11/02 10:03:34;;;;;;;4.50;2.67;;;;;;;27.65;28.12;96774.41;5072650;28;20127;-59
2022/11/02 10:06:08;;;;;;;9.98;2.90;;;;;;;27.54;27.35;96770.13;5072775;28;20080;-59
2022/11/02 10:08:41;;;;;;;4.60;2.30;;;;;;;27.45;27.55;96766.56;5072613;28;20040;-59
2022/11/02 10:11:22;;;;;;;3.85;2.03;;;;;;;27.41;28.37;96758.97;5072584;28;20106;-59
2022/11/02 10:13:55;;;;;;;5.40;2.38;;;;;;;27.58;27.38;96759.91;5072581;28;20053;-59
2022/11/02 10:16:25;;;;;;;4.65;2.58;;;;;;;27.65;27.28;96768.19;5072644;28;20140;-59
2022/11/02 10:18:55;;;;;;;4.00;1.98;;;;;;;27.67;26.41;96750.06;5072468;28;20084;-59
2022/11/02 10:21:26;;;;;;;6.28;2.38;;;;;;;27.65;27.33;96747.56;5072356;28;20045;-59
2022/11/02 10:23:54;;;;;;;5.22;2.22;;;;;;;27.75;26.69;96742.88;5072383;28;20048;-59
2022/11/02 10:26:28;;;;;;;7.32;2.40;;;;;;;27.92;26.91;96747.47;5072465;28;20090;-59
2022/11/02 10:28:59;;;;;;;4.45;2.20;;;;;;;27.91;25.88;96746.66;5072477;28;20071;-58
2022/11/02 10:31:30;;;;;;;6.90;2.00;;;;;;;27.82;26.24;96737.72;5072439;28;20052;-59
2022/11/02 10:34:05;;;;;;;4.95;2.30;;;;;;;27.95;25.60;96737.25;5072526;28;20147;-59
2022/11/02 10:36:48;;;;;;;6.53;2.03;;;;;;;28.04;25.76;96737.25;5072467;28;20059;-59
2022/11/02 10:39:24;;;;;;;5.60;2.55;;;;;;;28.04;26.04;96734.56;5072329;28;20048;-59
2022/11/02 10:42:08;;;;;;;7.25;2.25;;;;;;;27.93;25.06;96733.88;5072283;28;20088;-59
2022/11/02 10:44:53;;;;;;;3.42;1.70;;;;;;;27.94;25.21;96730.19;5072279;28;20494;-59
2022/11/02 10:47:22;;;;;;;3.25;2.03;;;;;;;27.91;24.13;96735.03;5072250;28;20045;-60
2022/11/02 10:50:14;;;;;;;11.52;2.65;;;;;;;27.72;25.26;96724.41;5072758;28;20131;-59
2022/11/02 10:52:43;;;;;;;3.85;2.65;;;;;;;27.58;26.07;96722.31;5075818;28;20055;-59
2022/11/02 10:55:21;;;;;;;4.65;2.65;;;;;;;27.42;26.49;96715.03;5075709;28;20074;-59
2022/11/02 10:57:51;;;;;;;5.40;2.38;;;;;;;27.43;26.45;96714.03;5075638;28;20048;-59
2022/11/02 11:00:30;;;;;;;5.55;2.20;;;;;;;27.50;26.15;96715.91;5075658;28;20430;-60
2022/11/02 11:03:11;;;;;;;6.80;1.83;;;;;;;27.43;24.57;96708.66;5075676;28;20467;-59
2022/11/02 11:05:58;;;;;;;5.82;1.67;;;;;;;27.51;21.14;96706.00;5075497;28;20047;-60
2022/11/02 11:08:31;;;;;;;3.05;1.30;;;;;;;27.54;20.26;96704.84;5075560;28;20060;-60
2022/11/02 11:11:11;;;;;;;6.97;1.50;;;;;;;27.62;19.79;96697.66;5075433;28;20055;-60
2022/11/02 11:13:41;;;;;;;5.10;1.50;;;;;;;27.72;18.90;96702.09;5075362;28;20448;-60
2022/11/02 11:16:10;;;;;;;2.15;1.48;;;;;;;27.78;19.60;96690.66;5075422;28;20059;-60
2022/11/02 11:18:38;;;;;;;7.82;2.03;;;;;;;27.80;20.29;96695.88;5075291;28;20040;-59
2022/11/02 11:21:07;;;;;;;3.70;1.00;;;;;;;27.78;18.71;96698.72;5075299;28;20055;-59
2022/11/02 11:23:34;;;;;;;10.07;2.13;;;;;;;27.82;18.63;96688.50;5075023;28;20494;-60
2022/11/02 11:26:03;;;;;;;2.22;1.65;;;;;;;27.91;18.96;96700.97;5075202;28;20444;-60
2022/11/02 11:28:33;;;;;;;4.05;1.33;;;;;;;27.96;18.25;96684.34;5075051;28;20102;-60
2022/11/02 11:31:11;;;;;;;5.20;2.10;;;;;;;27.96;17.90;96679.78;5075102;28;20063;-59
2022/11/02 11:33:44;;;;;;;3.95;2.05;;;;;;;27.94;18.23;96675.59;5074968;28;20048;-59
2022/11/02 11:36:20;;;;;;;3.92;1.50;;;;;;;27.97;18.16;96667.22;5074948;28;20048;-60
2022/11/02 11:38:50;;;;;;;9.55;2.38;;;;;;;27.90;18.39;96680.44;5075039;28;20053;-59
2022/11/02 11:41:17;;;;;;;3.50;1.33;;;;;;;27.97;18.52;96676.13;5074982;28;20380;-59
2022/11/02 11:43:47;;;;;;;8.32;1.90;;;;;;;28.03;18.92;96674.63;5074878;28;20087;-60
2022/11/02 11:46:17;;;;;;;3.67;1.40;;;;;;;28.07;18.18;96675.97;5074847;28;20048;-60
2022/11/02 11:48:49;;;;;;;5.15;1.52;;;;;;;28.05;18.81;96672.59;5074751;28;20041;-59
2022/11/02 11:51:28;;;;;;;6.30;1.70;;;;;;;28.01;17.91;96671.25;5074612;28;20128;-59
2022/11/02 11:54:21;;;;;;;6.07;1.70;;;;;;;28.07;18.63;96667.91;5074631;28;20388;-59
2022/11/02 11:56:49;;;;;;;3.63;1.30;;;;;;;28.06;19.47;96668.06;5074612;28;20120;-59
2022/11/02 11:59:22;;;;;;;5.22;2.67;;;;;;;27.98;23.58;96658.97;5074519;28;20045;-59
2022/11/02 12:01:53;;;;;;;6.78;2.67;;;;;;;27.93;24.89;96669.38;5074052;28;20080;-59